Kezdőlap
METAR-TAF:

METAR-TAF

Repülőterek :

Owatonna Degner Regional Airport

Owatonna, Minnesota, Amerikai Egyesült Államok

földrajzi szélesség: 44-07N, földrajzi hosszúság: 093-15W, magasság: 350 m

Jelenlegi meteorológiai megfigyelések

A jelentés 18 perccel ezelõtt készült, 14:54 UTC
Déli szél 13 kt
Hőmérséklet -15°C
Páratartalom 85%
Légköri nyomás 1029 hPa
Látótávolság: 11.3 km
Derült ég

METAR: KOWA 211454Z AUTO 18013KT 7SM CLR M15/M17 A3038 RMK AO2

Idő: 09:12 (15:12 UTC)


TAF: hiányzik

Meteorológiai megfigyelések és előrejelzések több, mint 4000 repülőtéren (METAR és TAF jelentéseket).

A térképen piros és sárga pontok jelzik az elérhető meteorológiai állomásokat.

Mozgassa az egeret a pont fölött, hogy megjelenjen az állomás neve.

Azután kattintson az időjárási megfigyelések és előrejelzések megtekintéséhez.

A térkép megváltoztatása: kattintson a fekete keresztel jelölt zöld gombra ráközelítéshez, a vonallal jelölt zöld gombra távolításhoz, vagy a zöld nyilakra a szomszédos térképek eléréséhez.


METAR-TAF: